Aérodrome :
LOGIN :

S'inscrire | Disclaimer

   EN    FR    IT 

 










Légende :    VFR   VFR Marginal   IFR   IFR Intensif   IFR Très Intensif
Visi : 
Plafond : 
>= 8 km
>= 3000ft
5 à 8 km
1000 à 3000 ft
1500m à 5 km
500 à 1000 ft
800 à 1500m
200 à 500 ft
< 800m
< 200 ft
Symboles :   Orages  Brouillard  Fortes neiges  Fortes précipitations  Vent > 20 kt
SIGMETs :   Divers  Orages  Givrage  Turbulence  Onde Orograph.  Cendres Volcan.







- Altitude de l'aérodrome : 218 ft
- Code IATA : LBG
- Voir les cartes d'approche


LFPB - Paris / Le Bourget

DERNIER METAR :
  • 260600Z AUTO 13006KT 9999 NSC 08/06 Q1012

METARs EXPIRÉS :
  • 260530Z AUTO 11005KT 9999 NSC 06/05 Q1012
  • 260500Z AUTO 09005KT CAVOK 05/03 Q1011 TEMPO 0600 FG BKN002 BECMG 18010KT
  • 260430Z AUTO 06006KT CAVOK 06/04 Q1011 TEMPO 0600 FG BKN002 BECMG 18010KT
  • 260400Z AUTO VRB02KT CAVOK 06/05 Q1011 TEMPO 0600 FG BKN002
  • 260330Z AUTO 15005KT CAVOK 06/04 Q1011 TEMPO 0600 FG BKN002

TAF TAF LFPB
Valide du 26 à 06h jusqu'au 27 à 06h UTC


260500Z 2606/2706 15005KT CAVOK
PROB40
TEMPO 2613/2618 4000 -SHRA SCT040TCU
PROB30
TEMPO 2613/2615 20015G25KT -TSRA SCT020CB
BECMG 2622/2624 BKN020
TEMPO 2701/2706 3500 -RA BKN016
BECMG 2703/2705 22015G25KT
ATIS : +33 1 48 62 43 92
Pas de NOTAMs connus pour ce terrain.



MET'MAP, la Météo Aéronautique d'un coup d'oeil ! - Copyright ORBIFLY Décembre 2007 - Disclaimer

ORBIFLY MET'MAP TEAM :

Programmation & Développement : Alexandra Zaïnal
Conception & Développement : Baudouin d'Aumeries
Co-Programmation & Développement : Marc-Olivier Méhu
Soutien technique & logistique : Manuel Goepfert

Contact : metmap@orbifly.com




SOURCES & CREDITS :

   NOAA